Medomak, Maine
Current Conditions -  °F | °C
As of 1:55 AM on Thursday 23 Oct 2014 (Local Time) from KRKD Reporting Station
Overcast Overcast  
Wind Chill: 42°   Ceiling: 600
Heat Index: 48°   Visibility: 3mi
Dew Point: 46°   Wind: 17mph
Humidity: 93%   Direction: 30°NNE
Pressure: 29.94"   Gusts: 28mph
Location:  43.9998°N, 69.4047°W
Report Text: KRKD 230555Z AUTO 03015G24KT 3SM OVC006 09/08 A2994 RMK AO1 P0001 60002 10090 20090 57024
Loading
Personal Weather Stations






























Interactive Weather Map
Tropical Storm Tracking
New forecast layout! Learn more

10-Day Weather Forecast

Advertisements
Track Severe Weather on mobile